Time;durP1;ratioP1;P1;durP2;ratioP2;P2;SDS_P1;SDS_P2;PMS_P1;PMS_P2;Temp;Humidity;BMP_temperature;BMP_pressure;BME280_temperature;BME280_humidity;BME280_pressure;Samples;Min_cycle;Max_cycle;Signal;HPM_P1;HPM_P2
2022/02/17 00:00:24;;;;;;;1.20;1.10;;;20.00;40.10;;;;;;5095112;28;20083;-74
2022/02/17 00:02:50;;;;;;;1.67;0.80;;;20.00;40.10;;;;;;5113360;28;20063;-74
2022/02/17 00:05:16;;;;;;;1.70;0.90;;;20.00;40.10;;;;;;5113199;28;20165;-74
2022/02/17 00:07:42;;;;;;;2.15;1.00;;;20.00;40.10;;;;;;5109734;28;20148;-74
2022/02/17 00:10:09;;;;;;;1.02;0.90;;;20.00;40.10;;;;;;5113241;28;20167;-74
2022/02/17 00:12:35;;;;;;;1.98;1.00;;;20.00;40.10;;;;;;5076882;28;20404;-74
2022/02/17 00:15:01;;;;;;;1.05;0.70;;;20.00;40.00;;;;;;5113231;28;20085;-74
2022/02/17 00:17:26;;;;;;;1.40;0.90;;;20.00;40.10;;;;;;5113041;28;20123;-74
2022/02/17 00:19:52;;;;;;;0.93;0.70;;;20.00;40.00;;;;;;5112995;28;20048;-74
2022/02/17 00:22:18;;;;;;;1.13;0.90;;;20.00;40.00;;;;;;5093430;28;20067;-74
2022/02/17 00:24:44;;;;;;;2.35;1.00;;;20.00;40.10;;;;;;5094564;28;20399;-74
2022/02/17 00:27:10;;;;;;;1.17;0.70;;;20.00;40.10;;;;;;5077788;28;20407;-74
2022/02/17 00:29:36;;;;;;;2.83;1.02;;;20.00;40.20;;;;;;5112968;28;20039;-74
2022/02/17 00:32:02;;;;;;;2.13;0.88;;;20.00;40.20;;;;;;5092911;28;20056;-74
2022/02/17 00:34:27;;;;;;;1.48;0.75;;;20.00;40.20;;;;;;5112848;28;20051;-74
2022/02/17 00:36:53;;;;;;;0.90;0.80;;;20.00;40.20;;;;;;5112814;28;20052;-74
2022/02/17 00:39:20;;;;;;;1.80;0.80;;;20.00;40.20;;;;;;5092958;28;20047;-74
2022/02/17 00:41:47;;;;;;;1.50;0.80;;;19.90;40.20;;;;;;5112811;28;20483;-74
2022/02/17 00:44:15;;;;;;;1.50;0.90;;;20.00;40.20;;;;;;5094337;28;20043;-74
2022/02/17 00:46:41;;;;;;;1.42;0.70;;;19.90;40.20;;;;;;5095020;28;20078;-74
2022/02/17 00:49:07;;;;;;;1.65;0.90;;;19.90;40.20;;;;;;5116291;28;20104;-74
2022/02/17 00:51:34;;;;;;;1.77;0.80;;;20.00;40.20;;;;;;5098050;28;20055;-74
2022/02/17 00:53:59;;;;;;;1.02;0.70;;;20.00;40.30;;;;;;5080984;28;20044;-74
2022/02/17 00:56:27;;;;;;;1.25;0.85;;;20.00;40.20;;;;;;5114248;28;20051;-74
2022/02/17 00:58:54;;;;;;;1.83;0.90;;;19.90;40.20;;;;;;5096656;28;20109;-74
2022/02/17 01:01:24;;;;;;;2.53;1.00;;;20.00;40.30;;;;;;5096760;28;20082;-74
2022/02/17 01:03:50;;;;;;;0.90;0.70;;;20.00;40.30;;;;;;5097800;28;20085;-74
2022/02/17 01:06:15;;;;;;;1.08;0.80;;;20.00;40.30;;;;;;5098036;28;20051;-74
2022/02/17 01:08:41;;;;;;;1.20;0.90;;;19.90;40.30;;;;;;5096631;28;20052;-74
2022/02/17 01:11:08;;;;;;;1.50;1.00;;;19.90;40.20;;;;;;5097791;28;20062;-74
2022/02/17 01:13:35;;;;;;;1.38;0.90;;;19.90;40.30;;;;;;5116010;28;20119;-74
2022/02/17 01:16:02;;;;;;;1.27;0.80;;;19.90;40.40;;;;;;5115926;28;20516;-74
2022/02/17 01:18:29;;;;;;;0.70;0.70;;;19.90;40.40;;;;;;5096888;28;20138;-74
2022/02/17 01:20:58;;;;;;;1.40;0.90;;;19.90;40.40;;;;;;5096240;28;20059;-74
2022/02/17 01:23:24;;;;;;;1.35;0.77;;;19.90;40.40;;;;;;5097329;28;20047;-74
2022/02/17 01:25:50;;;;;;;1.17;0.85;;;19.80;40.40;;;;;;5115490;28;20062;-74
2022/02/17 01:28:16;;;;;;;1.20;0.80;;;19.90;40.50;;;;;;5115374;28;20101;-74
2022/02/17 01:30:46;;;;;;;0.97;0.80;;;19.90;40.50;;;;;;5090315;28;20056;-74
2022/02/17 01:33:13;;;;;;;1.27;0.70;;;19.90;40.40;;;;;;5095165;28;20325;-74
2022/02/17 01:35:48;;;;;;;1.65;0.80;;;19.80;40.40;;;;;;5080365;28;20056;-74
2022/02/17 01:38:14;;;;;;;2.00;0.75;;;19.80;40.40;;;;;;5097380;28;20066;-74
2022/02/17 01:40:40;;;;;;;1.73;0.95;;;19.90;40.40;;;;;;5096339;28;20147;-74
2022/02/17 01:43:06;;;;;;;1.13;0.85;;;19.80;40.40;;;;;;5115254;28;20390;-74
2022/02/17 01:45:32;;;;;;;1.55;0.90;;;19.80;40.40;;;;;;5096118;28;20143;-74
2022/02/17 01:47:57;;;;;;;1.70;0.90;;;19.90;40.40;;;;;;5095632;28;20105;-74
2022/02/17 01:50:30;;;;;;;1.27;0.90;;;19.80;40.40;;;;;;5097553;28;20091;-74
2022/02/17 01:52:55;;;;;;;1.13;0.90;;;19.80;40.40;;;;;;5115205;28;20083;-74
2022/02/17 01:55:22;;;;;;;1.13;0.75;;;19.80;40.40;;;;;;5115418;28;20052;-74
2022/02/17 01:57:47;;;;;;;1.88;0.95;;;19.80;40.40;;;;;;5096523;28;20062;-74
2022/02/17 02:00:20;;;;;;;1.50;0.82;;;19.80;40.40;;;;;;5096016;28;20048;-74
2022/02/17 02:02:46;;;;;;;0.80;0.80;;;19.80;40.40;;;;;;5115182;28;20052;-74
2022/02/17 02:05:17;;;;;;;1.73;0.85;;;19.80;40.50;;;;;;5114271;28;20039;-74
2022/02/17 02:07:44;;;;;;;1.70;0.85;;;19.80;40.40;;;;;;5096880;28;20109;-74
2022/02/17 02:10:21;;;;;;;1.15;0.63;;;19.80;40.50;;;;;;5097502;28;20047;-74
2022/02/17 02:12:47;;;;;;;2.22;0.95;;;19.80;40.50;;;;;;5114057;28;20070;-74
2022/02/17 02:15:45;;;;;;;2.58;1.10;;;19.80;40.50;;;;;;5096757;28;20492;-74
2022/02/17 02:18:14;;;;;;;1.00;0.90;;;19.80;40.50;;;;;;5079484;28;20047;-74
2022/02/17 02:20:48;;;;;;;2.72;0.85;;;19.80;40.50;;;;;;5113596;28;20147;-74
2022/02/17 02:23:14;;;;;;;2.17;1.00;;;19.80;40.60;;;;;;5096111;28;20140;-74
2022/02/17 02:25:46;;;;;;;0.80;0.80;;;19.70;40.50;;;;;;5094755;28;20081;-74
2022/02/17 02:28:27;;;;;;;0.95;0.70;;;19.80;40.60;;;;;;5111938;28;20503;-74
2022/02/17 02:30:53;;;;;;;;;;;19.80;40.50;;;;;;5113948;28;20406;-74
2022/02/17 02:33:21;;;;;;;1.38;0.70;;;19.80;40.50;;;;;;5095526;28;19922;-74
2022/02/17 02:35:47;;;;;;;1.63;0.90;;;19.80;40.50;;;;;;5094881;28;20427;-74
2022/02/17 02:38:14;;;;;;;0.77;0.77;;;19.80;40.40;;;;;;5112730;28;20052;-74
2022/02/17 02:40:40;;;;;;;1.55;1.20;;;19.80;40.50;;;;;;5095544;28;20059;-74
2022/02/17 02:43:07;;;;;;;2.22;0.98;;;19.80;40.50;;;;;;5111472;28;20140;-74
2022/02/17 02:45:33;;;;;;;1.35;0.90;;;19.80;40.50;;;;;;5113121;28;20108;-74
2022/02/17 02:48:06;;;;;;;1.70;0.77;;;19.80;40.50;;;;;;5096337;28;20051;-74
2022/02/17 02:50:33;;;;;;;1.25;0.95;;;19.80;40.50;;;;;;5096475;28;20105;-74
2022/02/17 02:52:59;;;;;;;3.15;0.85;;;19.80;40.50;;;;;;5079184;28;20047;-74
2022/02/17 02:55:25;;;;;;;1.35;0.88;;;19.80;40.50;;;;;;5114302;28;20059;-74
2022/02/17 02:57:50;;;;;;;1.33;0.73;;;19.80;40.50;;;;;;5095786;28;20048;-74
2022/02/17 03:00:16;;;;;;;1.92;0.95;;;19.80;40.60;;;;;;5095223;28;20454;-74
2022/02/17 03:02:43;;;;;;;1.50;0.90;;;19.80;40.50;;;;;;5095967;28;20056;-74
2022/02/17 03:05:11;;;;;;;3.25;0.93;;;19.80;40.50;;;;;;5096203;28;20088;-74
2022/02/17 03:07:37;;;;;;;1.52;1.00;;;19.80;40.50;;;;;;5095561;28;20051;-74
2022/02/17 03:10:04;;;;;;;1.30;0.82;;;19.80;40.50;;;;;;5113034;28;20051;-74
2022/02/17 03:12:33;;;;;;;1.63;0.95;;;19.80;40.50;;;;;;5095783;28;20490;-74
2022/02/17 03:14:59;;;;;;;1.10;1.00;;;19.90;40.50;;;;;;5114402;28;20476;-74
2022/02/17 03:17:27;;;;;;;1.13;0.77;;;19.90;40.50;;;;;;5095657;28;20055;-74
2022/02/17 03:19:53;;;;;;;1.40;0.80;;;19.80;40.40;;;;;;5095407;28;20059;-74
2022/02/17 03:22:19;;;;;;;1.55;0.93;;;19.90;40.40;;;;;;5095867;28;20055;-74
2022/02/17 03:24:45;;;;;;;1.63;0.90;;;19.90;40.40;;;;;;5095577;28;20395;-74
2022/02/17 03:27:11;;;;;;;1.80;0.80;;;19.90;40.40;;;;;;5093741;28;20048;-74
2022/02/17 03:29:37;;;;;;;1.67;0.80;;;19.90;40.40;;;;;;5095085;28;20097;-74
2022/02/17 03:32:05;;;;;;;1.02;0.75;;;19.90;40.50;;;;;;5095443;28;20063;-74
2022/02/17 03:34:32;;;;;;;1.67;1.08;;;19.90;40.40;;;;;;5079259;28;20055;-74
2022/02/17 03:36:57;;;;;;;1.35;0.80;;;19.90;40.40;;;;;;5095410;28;20058;-74
2022/02/17 03:39:23;;;;;;;1.58;0.80;;;19.90;40.30;;;;;;5094942;28;20055;-74
2022/02/17 03:42:18;;;;;;;0.98;0.85;;;19.90;40.40;;;;;;5095662;28;20040;-74
2022/02/17 03:44:44;;;;;;;1.98;0.90;;;20.00;40.40;;;;;;5095220;28;20044;-74
2022/02/17 03:47:25;;;;;;;2.63;0.73;;;19.90;40.40;;;;;;5095536;28;20487;-74
2022/02/17 03:49:57;;;;;;;1.00;0.70;;;20.00;40.30;;;;;;5095481;28;20108;-74
2022/02/17 03:52:28;;;;;;;1.10;0.70;;;20.00;40.30;;;;;;5095110;28;20480;-74
2022/02/17 03:55:14;;;;;;;2.22;1.20;;;20.10;40.20;;;;;;5113514;28;20096;-74
2022/02/17 03:57:44;;;;;;;2.08;0.90;;;20.10;40.10;;;;;;5095250;28;20399;-74
2022/02/17 04:00:13;;;;;;;2.42;0.90;;;20.10;40.10;;;;;;5095575;28;20054;-74
2022/02/17 04:02:45;;;;;;;1.80;0.95;;;20.10;40.00;;;;;;5113542;28;20048;-74
2022/02/17 04:05:13;;;;;;;1.42;0.90;;;20.20;40.00;;;;;;5094820;28;20104;-74
2022/02/17 04:07:40;;;;;;;1.20;0.75;;;20.20;40.00;;;;;;5094194;28;20075;-74
2022/02/17 04:10:19;;;;;;;2.10;1.23;;;20.20;39.90;;;;;;5095114;28;20376;-74
2022/02/17 04:12:44;;;;;;;1.15;0.80;;;20.20;39.80;;;;;;5094772;28;20058;-74
2022/02/17 04:15:11;;;;;;;1.85;0.98;;;20.30;39.90;;;;;;5094787;28;20055;-74
2022/02/17 04:17:37;;;;;;;1.55;0.90;;;20.30;39.80;;;;;;5093544;28;20406;-74
2022/02/17 04:20:19;;;;;;;1.52;0.88;;;20.40;39.80;;;;;;5095243;28;20082;-74
2022/02/17 04:22:58;;;;;;;2.25;1.00;;;20.40;39.70;;;;;;5094753;28;20051;-74
2022/02/17 04:25:33;;;;;;;1.52;0.80;;;20.40;39.70;;;;;;5094824;28;20476;-74
2022/02/17 04:28:01;;;;;;;2.40;1.00;;;20.40;39.60;;;;;;5077891;28;20067;-74
2022/02/17 04:30:27;;;;;;;1.92;0.85;;;20.40;39.60;;;;;;5094650;28;20415;-74
2022/02/17 04:32:54;;;;;;;2.70;1.23;;;20.50;39.60;;;;;;5095142;28;20122;-74
2022/02/17 04:35:35;;;;;;;1.48;0.82;;;20.50;39.50;;;;;;5094750;28;20430;-74
2022/02/17 04:38:00;;;;;;;1.75;1.00;;;20.50;39.50;;;;;;5094158;28;20077;-74
2022/02/17 04:43:12;;;;;;;2.17;0.82;;;20.50;39.40;;;;;;5095041;28;20450;-74
2022/02/17 04:45:40;;;;;;;2.38;1.00;;;20.60;39.40;;;;;;5093039;28;20534;-74
2022/02/17 04:48:06;;;;;;;2.60;1.17;;;20.60;39.40;;;;;;5094665;28;20044;-74
2022/02/17 04:50:33;;;;;;;1.95;0.98;;;20.60;39.40;;;;;;5112399;28;20055;-74
2022/02/17 04:52:58;;;;;;;2.22;1.08;;;20.60;39.40;;;;;;5112480;28;20491;-74
2022/02/17 04:55:24;;;;;;;2.13;1.08;;;20.60;39.30;;;;;;5094254;28;20055;-74
2022/02/17 04:57:53;;;;;;;1.35;0.80;;;20.60;39.20;;;;;;5094595;28;20109;-74
2022/02/17 05:00:20;;;;;;;2.08;1.10;;;20.60;39.20;;;;;;5093469;28;20051;-74
2022/02/17 05:02:49;;;;;;;1.40;0.98;;;20.60;39.20;;;;;;5094125;28;20055;-74
2022/02/17 05:05:33;;;;;;;2.42;0.80;;;20.60;39.20;;;;;;5112425;28;20434;-74
2022/02/17 05:07:59;;;;;;;2.25;1.00;;;20.70;39.20;;;;;;5092102;28;20052;-74
2022/02/17 05:10:29;;;;;;;1.95;0.90;;;20.70;39.10;;;;;;5094390;28;20451;-74
2022/02/17 05:12:55;;;;;;;1.33;0.95;;;20.70;39.10;;;;;;5077348;28;20206;-74
2022/02/17 05:15:21;;;;;;;1.70;1.10;;;20.70;39.10;;;;;;5093794;28;20475;-74
2022/02/17 05:17:47;;;;;;;1.95;1.20;;;20.70;39.10;;;;;;5092346;28;20048;-74
2022/02/17 05:20:16;;;;;;;2.80;1.00;;;20.70;39.10;;;;;;5075325;28;20048;-74
2022/02/17 05:23:02;;;;;;;1.58;0.88;;;20.70;39.10;;;;;;5080451;28;20048;-74
2022/02/17 05:25:40;;;;;;;2.20;1.00;;;20.70;39.00;;;;;;5093581;28;20476;-74
2022/02/17 05:28:22;;;;;;;2.65;1.02;;;20.70;39.00;;;;;;5091847;28;20136;-74
2022/02/17 05:30:54;;;;;;;4.45;1.20;;;20.70;39.00;;;;;;5093651;28;20051;-74
2022/02/17 05:33:38;;;;;;;1.85;1.00;;;20.70;39.00;;;;;;5095293;28;20391;-74
2022/02/17 05:36:16;;;;;;;2.90;0.93;;;20.70;39.00;;;;;;5097831;28;20079;-75
2022/02/17 05:39:00;;;;;;;1.88;0.90;;;20.70;39.00;;;;;;5115082;28;20055;-74
2022/02/17 05:41:36;;;;;;;2.05;1.00;;;20.70;39.00;;;;;;5114818;28;20096;-74
2022/02/17 05:44:02;;;;;;;2.28;1.13;;;20.70;39.10;;;;;;5115399;28;20474;-74
2022/02/17 05:46:28;;;;;;;1.70;1.10;;;20.70;39.00;;;;;;5115374;28;20066;-74
2022/02/17 05:48:53;;;;;;;1.50;1.02;;;20.70;39.00;;;;;;5115333;28;20403;-74
2022/02/17 05:51:19;;;;;;;2.33;0.93;;;20.70;39.00;;;;;;5115383;28;20051;-74
2022/02/17 05:53:45;;;;;;;2.53;1.20;;;20.70;39.00;;;;;;5096982;28;20113;-74
2022/02/17 05:56:10;;;;;;;1.48;0.80;;;20.70;39.00;;;;;;5115147;28;20047;-74
2022/02/17 05:58:37;;;;;;;1.77;0.80;;;20.70;39.00;;;;;;5115334;28;20047;-74
2022/02/17 06:01:04;;;;;;;1.40;0.85;;;20.70;39.00;;;;;;5115324;28;20096;-74
2022/02/17 06:03:31;;;;;;;2.88;0.98;;;20.70;39.00;;;;;;5096759;28;20146;-74
2022/02/17 06:05:58;;;;;;;3.40;1.13;;;20.70;39.00;;;;;;5115251;28;20052;-74
2022/02/17 06:08:24;;;;;;;1.73;0.90;;;20.70;39.00;;;;;;5115170;28;20059;-74
2022/02/17 06:10:49;;;;;;;2.28;0.90;;;20.70;38.90;;;;;;5114881;28;20128;-74
2022/02/17 06:13:15;;;;;;;1.75;1.02;;;20.70;39.00;;;;;;5096135;28;20056;-75
2022/02/17 06:15:42;;;;;;;1.17;0.80;;;20.70;38.90;;;;;;5114615;28;20503;-74
2022/02/17 06:18:08;;;;;;;1.30;0.82;;;20.70;39.50;;;;;;5113119;28;20071;-74
2022/02/17 06:20:35;;;;;;;2.63;1.20;;;20.70;39.00;;;;;;5113161;28;20051;-74
2022/02/17 06:23:00;;;;;;;2.95;1.10;;;20.70;38.90;;;;;;5096438;28;20055;-74
2022/02/17 06:25:26;;;;;;;2.08;0.93;;;20.70;39.00;;;;;;5114860;28;20051;-74
2022/02/17 06:27:52;;;;;;;2.65;1.10;;;20.70;39.00;;;;;;5114855;28;20486;-74
2022/02/17 06:30:19;;;;;;;1.75;0.95;;;20.70;39.00;;;;;;5114360;28;20113;-74
2022/02/17 06:32:50;;;;;;;4.25;1.17;;;20.70;39.00;;;;;;5095919;28;20069;-74
2022/02/17 06:35:18;;;;;;;2.20;1.13;;;20.70;39.00;;;;;;5096442;28;20463;-74
2022/02/17 06:37:43;;;;;;;2.55;1.25;;;20.70;38.90;;;;;;5114902;28;20090;-74
2022/02/17 06:40:10;;;;;;;2.88;1.20;;;20.70;39.00;;;;;;5113349;28;20071;-74
2022/02/17 06:42:37;;;;;;;3.17;1.35;;;20.70;39.00;;;;;;5114495;28;20043;-74
2022/02/17 06:45:03;;;;;;;2.25;1.30;;;20.70;38.90;;;;;;5114155;28;20055;-74
2022/02/17 06:47:28;;;;;;;1.55;1.05;;;20.70;39.00;;;;;;5114568;28;20044;-74
2022/02/17 06:49:54;;;;;;;4.40;1.40;;;20.70;39.00;;;;;;5114770;28;20402;-74
2022/02/17 06:52:20;;;;;;;3.03;1.20;;;20.70;39.00;;;;;;5114429;28;20419;-74
2022/02/17 06:54:46;;;;;;;2.45;1.27;;;20.70;39.00;;;;;;5095472;28;20044;-74
2022/02/17 06:57:15;;;;;;;3.78;1.55;;;20.70;38.90;;;;;;5113057;28;20047;-74
2022/02/17 06:59:40;;;;;;;2.10;1.10;;;20.70;38.90;;;;;;5113032;28;20054;-74
2022/02/17 07:02:06;;;;;;;1.88;1.25;;;20.80;39.00;;;;;;5114302;28;20052;-74
2022/02/17 07:04:32;;;;;;;1.67;0.90;;;20.70;38.90;;;;;;5114177;28;20059;-74
2022/02/17 07:06:57;;;;;;;7.35;1.35;;;20.80;39.00;;;;;;5114241;28;20048;-74
2022/02/17 07:09:23;;;;;;;3.67;1.40;;;20.80;39.00;;;;;;5095860;28;20047;-74
2022/02/17 07:11:48;;;;;;;3.53;1.23;;;20.80;38.90;;;;;;5112250;28;20066;-74
2022/02/17 07:14:14;;;;;;;4.43;1.60;;;20.80;38.90;;;;;;5114073;28;20056;-74
2022/02/17 07:16:39;;;;;;;5.82;1.52;;;20.80;38.90;;;;;;5114132;28;20140;-74
2022/02/17 07:19:06;;;;;;;1.77;1.13;;;20.80;38.90;;;;;;5095573;28;20092;-74
2022/02/17 07:21:32;;;;;;;2.50;1.05;;;20.80;38.90;;;;;;5113938;28;20418;-74
2022/02/17 07:23:58;;;;;;;3.35;1.30;;;20.80;38.90;;;;;;5113959;28;20441;-74
2022/02/17 07:26:25;;;;;;;5.90;1.35;;;20.80;38.90;;;;;;5113928;28;20377;-74
2022/02/17 07:28:50;;;;;;;2.22;1.20;;;20.80;38.80;;;;;;5113822;28;20067;-74
2022/02/17 07:31:16;;;;;;;3.53;1.27;;;20.80;38.90;;;;;;5113740;28;20519;-74
2022/02/17 07:33:42;;;;;;;3.70;1.70;;;20.80;38.80;;;;;;5095336;28;20074;-74
2022/02/17 07:36:09;;;;;;;3.20;1.10;;;20.80;38.80;;;;;;5113521;28;20079;-74
2022/02/17 07:38:35;;;;;;;4.35;1.50;;;20.90;38.90;;;;;;5113974;28;20040;-74
2022/02/17 07:41:01;;;;;;;5.18;1.83;;;20.80;38.80;;;;;;5094468;28;20168;-74
2022/02/17 07:43:28;;;;;;;5.30;1.50;;;20.80;38.80;;;;;;5113574;28;20151;-74
2022/02/17 07:45:54;;;;;;;5.53;1.65;;;20.80;38.80;;;;;;5113570;28;20534;-74
2022/02/17 07:48:20;;;;;;;6.53;1.73;;;20.80;38.80;;;;;;5113207;28;20130;-74
2022/02/17 07:50:45;;;;;;;4.30;1.77;;;20.80;38.80;;;;;;5113238;28;20052;-74
2022/02/17 07:53:11;;;;;;;4.10;1.50;;;20.80;38.80;;;;;;5113143;28;20059;-74
2022/02/17 07:55:37;;;;;;;7.40;1.92;;;20.90;38.80;;;;;;5110532;28;20063;-74
2022/02/17 07:58:05;;;;;;;5.88;1.77;;;20.90;38.80;;;;;;5112841;28;20044;-74
2022/02/17 08:00:31;;;;;;;4.10;1.60;;;20.90;38.80;;;;;;5095113;28;20058;-74
2022/02/17 08:02:57;;;;;;;6.35;1.85;;;20.80;38.80;;;;;;5112135;28;20431;-74
2022/02/17 08:05:22;;;;;;;3.47;1.55;;;20.90;38.80;;;;;;5111934;28;20510;-74
2022/02/17 08:07:48;;;;;;;5.70;1.70;;;20.90;38.80;;;;;;5113559;28;20052;-74
2022/02/17 08:10:14;;;;;;;4.18;1.58;;;20.90;38.80;;;;;;5113104;28;20899;-74
2022/02/17 08:12:41;;;;;;;3.80;1.60;;;20.90;38.80;;;;;;5112021;28;20051;-74
2022/02/17 08:15:07;;;;;;;5.78;1.80;;;20.90;38.80;;;;;;5113231;28;20052;-74
2022/02/17 08:17:33;;;;;;;4.35;1.50;;;20.90;38.80;;;;;;5094886;28;20058;-74
2022/02/17 08:19:59;;;;;;;4.75;1.80;;;20.80;38.70;;;;;;5112906;28;20051;-74
2022/02/17 08:22:25;;;;;;;5.40;1.98;;;20.90;38.80;;;;;;5094991;28;20051;-74
2022/02/17 08:24:52;;;;;;;4.53;1.52;;;20.90;38.80;;;;;;5094608;28;20126;-74
2022/02/17 08:27:18;;;;;;;4.82;1.83;;;20.90;38.80;;;;;;5113020;28;20134;-74
2022/02/17 08:29:44;;;;;;;4.03;1.75;;;20.90;38.80;;;;;;5112725;28;20043;-74
2022/02/17 08:32:09;;;;;;;5.60;1.70;;;20.90;38.80;;;;;;5113258;28;20052;-74
2022/02/17 08:34:35;;;;;;;5.47;1.77;;;20.90;38.70;;;;;;5094536;28;20376;-74
2022/02/17 08:37:01;;;;;;;3.70;1.60;;;20.90;38.80;;;;;;5113078;28;20056;-74
2022/02/17 08:39:27;;;;;;;4.70;2.17;;;20.90;38.80;;;;;;5112784;28;20059;-74
2022/02/17 08:41:52;;;;;;;4.30;1.98;;;20.90;38.70;;;;;;5111534;28;20056;-74
2022/02/17 08:44:18;;;;;;;5.18;1.75;;;20.90;38.70;;;;;;5094344;28;20146;-74
2022/02/17 08:46:44;;;;;;;5.97;1.52;;;20.90;38.70;;;;;;5110429;28;20063;-74
2022/02/17 08:49:09;;;;;;;3.42;1.60;;;20.90;38.70;;;;;;5112728;28;20051;-74
2022/02/17 08:51:37;;;;;;;14.20;2.03;;;20.90;38.60;;;;;;5112385;28;20043;-74
2022/02/17 08:54:04;;;;;;;4.93;1.67;;;20.90;38.60;;;;;;5111153;28;20167;-74
2022/02/17 08:56:29;;;;;;;6.70;1.70;;;20.90;38.60;;;;;;5112606;28;20051;-77
2022/02/17 08:58:57;;;;;;;6.20;1.60;;;20.90;38.80;;;;;;5112570;28;20108;-76
2022/02/17 09:01:22;;;;;;;6.03;1.70;;;20.90;39.00;;;;;;5094402;28;20105;-75
2022/02/17 09:03:48;;;;;;;6.95;1.85;;;21.00;39.00;;;;;;5112902;28;20047;-75
2022/02/17 09:06:14;;;;;;;7.88;2.58;;;21.00;39.00;;;;;;5112414;28;20062;-75
2022/02/17 09:08:40;;;;;;;6.25;2.00;;;21.00;39.20;;;;;;5113380;28;20055;-75
2022/02/17 09:11:06;;;;;;;7.28;2.53;;;20.90;39.10;;;;;;5097532;28;20061;-75
2022/02/17 09:13:32;;;;;;;6.63;2.30;;;20.90;39.10;;;;;;5115971;28;20055;-75
2022/02/17 09:15:59;;;;;;;7.55;2.30;;;20.90;39.10;;;;;;5115919;28;20071;-75
2022/02/17 09:18:28;;;;;;;6.57;2.03;;;21.00;39.10;;;;;;5115906;28;20043;-75
2022/02/17 09:20:54;;;;;;;7.63;2.65;;;20.90;39.10;;;;;;5115740;28;20052;-75
2022/02/17 09:23:19;;;;;;;10.02;2.80;;;20.90;39.10;;;;;;5096250;28;20106;-75
2022/02/17 09:25:46;;;;;;;7.80;2.38;;;21.00;39.00;;;;;;5115867;28;20070;-75
2022/02/17 09:28:12;;;;;;;6.65;2.28;;;21.00;39.00;;;;;;5115559;28;20058;-75
2022/02/17 09:30:37;;;;;;;5.90;1.95;;;21.00;38.90;;;;;;5115284;28;20048;-75
2022/02/17 09:33:04;;;;;;;5.75;1.92;;;21.00;38.90;;;;;;5115538;28;20086;-75
2022/02/17 09:35:30;;;;;;;4.43;1.95;;;21.00;38.90;;;;;;5115884;28;20426;-75
2022/02/17 09:37:55;;;;;;;6.75;2.10;;;20.90;38.90;;;;;;5097599;28;20059;-75
2022/02/17 09:40:23;;;;;;;6.07;2.28;;;21.00;38.90;;;;;;5112292;28;20144;-75
2022/02/17 09:42:49;;;;;;;4.72;2.08;;;21.00;38.90;;;;;;5115694;28;20391;-75
2022/02/17 09:45:14;;;;;;;8.30;2.10;;;20.90;38.90;;;;;;5115341;28;20100;-75
2022/02/17 09:47:42;;;;;;;11.00;2.40;;;20.90;38.90;;;;;;5097487;28;20139;-76
2022/02/17 09:50:14;;;;;;;5.03;2.08;;;20.90;39.00;;;;;;5096897;28;20093;-76
2022/02/17 09:52:40;;;;;;;4.60;2.00;;;21.00;39.20;;;;;;5115368;28;20052;-76
2022/02/17 09:55:12;;;;;;;6.93;1.77;;;21.00;39.10;;;;;;5097018;28;20134;-76
2022/02/17 09:57:38;;;;;;;6.25;1.67;;;21.10;39.20;;;;;;5115358;28;20059;-76
2022/02/17 10:00:09;;;;;;;8.30;1.92;;;21.10;39.20;;;;;;5115168;28;20055;-77
2022/02/17 10:02:38;;;;;;;7.13;2.40;;;21.10;39.20;;;;;;5115375;28;20055;-77
2022/02/17 10:05:05;;;;;;;6.82;2.28;;;21.10;39.30;;;;;;5096672;28;20096;-78
2022/02/17 10:07:37;;;;;;;13.10;2.10;;;21.10;39.30;;;;;;5096819;28;20143;-77
2022/02/17 10:10:08;;;;;;;8.18;2.50;;;21.20;39.40;;;;;;5115213;28;20063;-77
2022/02/17 10:12:53;;;;;;;4.55;2.03;;;21.20;39.40;;;;;;5113665;28;20082;-76
2022/02/17 10:15:36;;;;;;;8.13;2.10;;;21.20;39.30;;;;;;5115347;28;20134;-73
2022/02/17 10:18:09;;;;;;;5.68;1.92;;;21.20;39.60;;;;;;5114459;28;20059;-75
2022/02/17 10:20:55;;;;;;;5.55;1.95;;;21.20;39.40;;;;;;5095290;28;20059;-74
2022/02/17 10:23:22;;;;;;;5.88;2.17;;;21.20;39.40;;;;;;5114734;28;20043;-74
2022/02/17 10:26:10;;;;;;;6.90;2.08;;;21.20;39.40;;;;;;5095430;28;20083;-74
2022/02/17 10:28:44;;;;;;;3.38;1.98;;;21.20;39.40;;;;;;5114624;28;20056;-74
2022/02/17 10:31:22;;;;;;;;;;;21.10;39.30;;;;;;5114308;28;20388;-74
2022/02/17 10:33:52;;;;;;;5.38;1.60;;;21.10;39.30;;;;;;5096766;28;19915;-74
2022/02/17 10:36:30;;;;;;;6.43;1.75;;;21.10;39.20;;;;;;5114937;28;20052;-74
2022/02/17 10:39:12;;;;;;;4.05;1.80;;;21.10;39.20;;;;;;5114719;28;20040;-74
2022/02/17 10:41:59;;;;;;;7.18;1.80;;;21.10;39.20;;;;;;5113293;28;20051;-74
2022/02/17 10:44:41;;;;;;;6.47;1.70;;;21.10;39.20;;;;;;5114415;28;20058;-74
2022/02/17 10:47:26;;;;;;;5.65;2.08;;;21.10;39.20;;;;;;5096017;28;20142;-74
2022/02/17 10:49:54;;;;;;;6.30;1.58;;;21.10;39.20;;;;;;5113098;28;20043;-74
2022/02/17 10:52:34;;;;;;;5.55;2.00;;;21.10;39.10;;;;;;5096146;28;20047;-75
2022/02/17 10:55:20;;;;;;;4.73;1.93;;;21.10;39.10;;;;;;5093979;28;20537;-74
2022/02/17 10:57:47;;;;;;;5.60;1.65;;;21.10;39.10;;;;;;5110762;28;20408;-74
2022/02/17 11:00:20;;;;;;;5.53;1.83;;;21.10;39.00;;;;;;5113482;28;20056;-74
2022/02/17 11:02:47;;;;;;;5.82;1.83;;;21.20;39.00;;;;;;5095810;28;20146;-75
2022/02/17 11:05:13;;;;;;;4.20;1.70;;;21.20;39.00;;;;;;5114303;28;20056;-74
2022/02/17 11:07:39;;;;;;;4.43;1.67;;;21.10;38.90;;;;;;5114030;28;20051;-75
2022/02/17 11:10:08;;;;;;;5.95;1.75;;;21.10;38.90;;;;;;5114139;28;20399;-74
2022/02/17 11:12:37;;;;;;;3.20;1.85;;;21.10;38.90;;;;;;5114419;28;20051;-74
2022/02/17 11:15:05;;;;;;;6.00;2.15;;;21.20;38.90;;;;;;5114059;28;20127;-74
2022/02/17 11:17:37;;;;;;;6.05;2.28;;;21.20;38.90;;;;;;5078539;28;20142;-75
2022/02/17 11:20:11;;;;;;;5.32;2.15;;;21.20;38.90;;;;;;5095996;28;20051;-74
2022/02/17 11:22:41;;;;;;;4.40;1.90;;;21.20;38.80;;;;;;5095605;28;20112;-74
2022/02/17 11:25:07;;;;;;;6.47;1.92;;;21.20;38.90;;;;;;5113810;28;20047;-74
2022/02/17 11:28:07;;;;;;;4.97;1.92;;;21.10;38.80;;;;;;5114070;28;20056;-74
2022/02/17 11:30:34;;;;;;;4.18;1.92;;;21.10;38.80;;;;;;5113361;28;20054;-74
2022/02/17 11:33:32;;;;;;;5.90;1.63;;;21.10;38.90;;;;;;5111990;28;20063;-74
2022/02/17 11:36:19;;;;;;;5.88;1.88;;;21.10;38.80;;;;;;5113572;28;20054;-74
2022/02/17 11:38:51;;;;;;;5.95;2.15;;;21.10;38.90;;;;;;5113848;28;20411;-74
2022/02/17 11:41:20;;;;;;;7.53;2.22;;;21.10;38.90;;;;;;5113881;28;20086;-74
2022/02/17 11:43:51;;;;;;;3.55;1.30;;;21.10;38.80;;;;;;5113460;28;20623;-75
2022/02/17 11:46:39;;;;;;;5.00;1.92;;;21.10;38.80;;;;;;5113631;28;20431;-74
2022/02/17 11:49:08;;;;;;;5.43;1.70;;;21.10;38.80;;;;;;5113362;28;20172;-74
2022/02/17 11:51:34;;;;;;;3.42;1.70;;;21.10;38.80;;;;;;5113477;28;20147;-74
2022/02/17 11:54:15;;;;;;;6.97;1.92;;;21.10;38.80;;;;;;5113493;28;20055;-74
2022/02/17 11:56:47;;;;;;;5.30;2.10;;;21.10;38.80;;;;;;5113445;28;20052;-74
2022/02/17 11:59:33;;;;;;;4.68;1.83;;;21.10;38.80;;;;;;5095182;28;20417;-74
2022/02/17 12:02:08;;;;;;;3.15;1.52;;;21.10;38.80;;;;;;5111987;28;20047;-74
2022/02/17 12:04:35;;;;;;;5.07;2.00;;;21.10;38.80;;;;;;5113298;28;20400;-74
2022/02/17 12:07:29;;;;;;;3.72;1.60;;;21.10;38.80;;;;;;5113089;28;20048;-74
2022/02/17 12:09:55;;;;;;;4.95;2.05;;;21.00;38.80;;;;;;5113096;28;20044;-74
2022/02/17 12:12:26;;;;;;;4.38;1.83;;;21.00;38.80;;;;;;5113159;28;20050;-75
2022/02/17 12:15:00;;;;;;;4.32;1.80;;;21.00;38.90;;;;;;5113459;28;20078;-75
2022/02/17 12:17:37;;;;;;;4.97;1.60;;;21.00;38.90;;;;;;5092678;28;20052;-74
2022/02/17 12:20:12;;;;;;;4.65;1.85;;;21.10;38.90;;;;;;5113023;28;20080;-75
2022/02/17 12:22:51;;;;;;;10.05;1.70;;;21.10;38.80;;;;;;5113927;28;20052;-77
2022/02/17 12:25:20;;;;;;;4.75;1.60;;;21.10;39.00;;;;;;5112906;28;20051;-76
2022/02/17 12:27:51;;;;;;;6.82;1.95;;;21.10;39.00;;;;;;5113324;28;20071;-76
2022/02/17 12:30:52;;;;;;;4.40;1.70;;;21.20;39.00;;;;;;5110876;28;20514;-76
2022/02/17 12:33:32;;;;;;;5.72;1.98;;;21.20;39.10;;;;;;5011770;28;20130;-77
2022/02/17 12:36:07;;;;;;;4.88;1.58;;;21.20;39.10;;;;;;5087261;28;20097;-77
2022/02/17 12:38:34;;;;;;;6.93;1.50;;;21.20;39.20;;;;;;5116132;28;20052;-77
2022/02/17 12:41:05;;;;;;;4.45;1.77;;;21.30;39.40;;;;;;5114145;28;20043;-78
2022/02/17 12:43:35;;;;;;;9.45;1.90;;;21.30;39.30;;;;;;5116449;28;20471;-77
2022/02/17 12:46:05;;;;;;;5.03;1.70;;;21.30;39.40;;;;;;5117595;28;20047;-79
2022/02/17 12:48:34;;;;;;;3.65;1.65;;;21.30;39.40;;;;;;5081717;28;20047;-78
2022/02/17 12:51:02;;;;;;;5.07;1.75;;;21.30;39.40;;;;;;5115736;28;20052;-76
2022/02/17 12:53:43;;;;;;;6.53;1.73;;;21.30;39.50;;;;;;5116445;28;20088;-75
2022/02/17 12:56:09;;;;;;;5.18;1.67;;;21.30;39.60;;;;;;5116141;28;20044;-75
2022/02/17 12:58:37;;;;;;;5.78;1.92;;;21.40;39.60;;;;;;5113396;28;20403;-74
2022/02/17 13:01:04;;;;;;;6.63;2.00;;;21.40;39.60;;;;;;5114819;28;20495;-75